sensor_id;sensor_type;location;lat;lon;timestamp;temperature;humidity
25741;DHT22;13592;50.838;4.412;2022-07-29T00:01:28;21.90;73.90
25741;DHT22;13592;50.838;4.412;2022-07-29T00:03:54;21.90;74.30
25741;DHT22;13592;50.838;4.412;2022-07-29T00:06:20;21.90;74.70
25741;DHT22;13592;50.838;4.412;2022-07-29T00:08:46;21.90;74.50
25741;DHT22;13592;50.838;4.412;2022-07-29T00:11:12;21.90;74.90
25741;DHT22;13592;50.838;4.412;2022-07-29T00:13:39;22.00;74.50
25741;DHT22;13592;50.838;4.412;2022-07-29T00:16:06;21.90;74.60
25741;DHT22;13592;50.838;4.412;2022-07-29T00:18:33;21.70;75.10
25741;DHT22;13592;50.838;4.412;2022-07-29T00:20:58;21.70;74.90
25741;DHT22;13592;50.838;4.412;2022-07-29T00:23:24;21.80;75.00
25741;DHT22;13592;50.838;4.412;2022-07-29T00:25:49;21.70;75.70
25741;DHT22;13592;50.838;4.412;2022-07-29T00:28:15;21.80;75.60
25741;DHT22;13592;50.838;4.412;2022-07-29T00:30:40;21.80;74.90
25741;DHT22;13592;50.838;4.412;2022-07-29T00:33:08;21.80;75.10
25741;DHT22;13592;50.838;4.412;2022-07-29T00:35:35;21.70;75.50
25741;DHT22;13592;50.838;4.412;2022-07-29T00:38:13;21.70;75.40
25741;DHT22;13592;50.838;4.412;2022-07-29T00:40:39;21.70;75.30
25741;DHT22;13592;50.838;4.412;2022-07-29T00:43:05;21.70;75.80
25741;DHT22;13592;50.838;4.412;2022-07-29T00:45:33;21.70;75.80
25741;DHT22;13592;50.838;4.412;2022-07-29T00:47:59;21.60;75.10
25741;DHT22;13592;50.838;4.412;2022-07-29T00:50:24;21.60;75.70
25741;DHT22;13592;50.838;4.412;2022-07-29T00:52:50;21.60;75.80
25741;DHT22;13592;50.838;4.412;2022-07-29T00:55:16;21.60;75.60
25741;DHT22;13592;50.838;4.412;2022-07-29T00:57:44;21.60;75.70
25741;DHT22;13592;50.838;4.412;2022-07-29T01:00:12;21.50;75.60
25741;DHT22;13592;50.838;4.412;2022-07-29T01:02:39;21.40;76.80
25741;DHT22;13592;50.838;4.412;2022-07-29T01:05:04;21.40;76.50
25741;DHT22;13592;50.838;4.412;2022-07-29T01:07:31;21.40;76.60
25741;DHT22;13592;50.838;4.412;2022-07-29T01:09:59;21.20;78.20
25741;DHT22;13592;50.838;4.412;2022-07-29T01:12:26;21.20;77.50
25741;DHT22;13592;50.838;4.412;2022-07-29T01:14:54;21.10;77.80
25741;DHT22;13592;50.838;4.412;2022-07-29T01:17:22;21.10;78.10
25741;DHT22;13592;50.838;4.412;2022-07-29T01:28:32;21.10;78.00
25741;DHT22;13592;50.838;4.412;2022-07-29T01:31:00;21.10;79.70
25741;DHT22;13592;50.838;4.412;2022-07-29T01:33:27;21.00;78.10
25741;DHT22;13592;50.838;4.412;2022-07-29T01:36:12;20.90;79.10
25741;DHT22;13592;50.838;4.412;2022-07-29T01:38:39;20.90;79.00
25741;DHT22;13592;50.838;4.412;2022-07-29T01:41:08;20.90;78.90
25741;DHT22;13592;50.838;4.412;2022-07-29T01:43:44;20.90;79.80
25741;DHT22;13592;50.838;4.412;2022-07-29T01:46:13;20.80;80.10
25741;DHT22;13592;50.838;4.412;2022-07-29T01:48:42;20.80;79.90
25741;DHT22;13592;50.838;4.412;2022-07-29T01:51:31;20.80;80.10
25741;DHT22;13592;50.838;4.412;2022-07-29T01:54:04;20.90;80.20
25741;DHT22;13592;50.838;4.412;2022-07-29T01:56:30;20.90;80.40
25741;DHT22;13592;50.838;4.412;2022-07-29T01:58:59;20.80;80.10
25741;DHT22;13592;50.838;4.412;2022-07-29T02:01:28;20.70;80.80
25741;DHT22;13592;50.838;4.412;2022-07-29T02:03:54;20.80;80.60
25741;DHT22;13592;50.838;4.412;2022-07-29T02:06:22;20.70;80.80
25741;DHT22;13592;50.838;4.412;2022-07-29T02:08:48;20.70;81.10
25741;DHT22;13592;50.838;4.412;2022-07-29T02:11:15;20.60;81.00
25741;DHT22;13592;50.838;4.412;2022-07-29T02:13:41;20.60;81.50
25741;DHT22;13592;50.838;4.412;2022-07-29T02:16:08;20.60;81.40
25741;DHT22;13592;50.838;4.412;2022-07-29T02:18:36;20.60;80.90
25741;DHT22;13592;50.838;4.412;2022-07-29T02:21:02;20.70;80.70
25741;DHT22;13592;50.838;4.412;2022-07-29T02:23:28;20.50;81.40
25741;DHT22;13592;50.838;4.412;2022-07-29T02:25:56;20.50;81.60
25741;DHT22;13592;50.838;4.412;2022-07-29T02:28:24;20.40;82.30
25741;DHT22;13592;50.838;4.412;2022-07-29T02:30:51;20.40;81.80
25741;DHT22;13592;50.838;4.412;2022-07-29T02:33:17;20.40;82.60
25741;DHT22;13592;50.838;4.412;2022-07-29T02:35:45;20.40;82.60
25741;DHT22;13592;50.838;4.412;2022-07-29T02:38:12;20.30;83.40
25741;DHT22;13592;50.838;4.412;2022-07-29T02:40:56;20.30;83.90
25741;DHT22;13592;50.838;4.412;2022-07-29T02:43:23;20.40;82.90
25741;DHT22;13592;50.838;4.412;2022-07-29T02:45:50;20.40;82.70
25741;DHT22;13592;50.838;4.412;2022-07-29T02:48:17;20.20;84.00
25741;DHT22;13592;50.838;4.412;2022-07-29T02:50:48;20.30;83.40
25741;DHT22;13592;50.838;4.412;2022-07-29T02:53:20;20.20;84.10
25741;DHT22;13592;50.838;4.412;2022-07-29T02:55:50;20.30;84.50
25741;DHT22;13592;50.838;4.412;2022-07-29T02:58:30;20.20;84.40
25741;DHT22;13592;50.838;4.412;2022-07-29T03:00:58;20.20;84.30
25741;DHT22;13592;50.838;4.412;2022-07-29T03:03:25;20.10;85.50
25741;DHT22;13592;50.838;4.412;2022-07-29T03:05:56;20.10;85.50
25741;DHT22;13592;50.838;4.412;2022-07-29T03:08:22;20.20;85.10
25741;DHT22;13592;50.838;4.412;2022-07-29T03:10:48;20.00;85.70
25741;DHT22;13592;50.838;4.412;2022-07-29T03:13:14;20.10;85.50
25741;DHT22;13592;50.838;4.412;2022-07-29T03:15:39;20.20;85.40
25741;DHT22;13592;50.838;4.412;2022-07-29T03:18:08;20.00;85.80
25741;DHT22;13592;50.838;4.412;2022-07-29T03:20:34;19.90;85.80
25741;DHT22;13592;50.838;4.412;2022-07-29T03:22:59;19.90;86.60
25741;DHT22;13592;50.838;4.412;2022-07-29T03:25:26;19.90;86.70
25741;DHT22;13592;50.838;4.412;2022-07-29T03:27:52;19.90;86.40
25741;DHT22;13592;50.838;4.412;2022-07-29T03:30:18;19.90;86.80
25741;DHT22;13592;50.838;4.412;2022-07-29T03:32:45;19.90;87.10
25741;DHT22;13592;50.838;4.412;2022-07-29T03:35:11;19.80;87.90
25741;DHT22;13592;50.838;4.412;2022-07-29T03:37:38;19.80;87.80
25741;DHT22;13592;50.838;4.412;2022-07-29T03:40:05;19.80;88.20
25741;DHT22;13592;50.838;4.412;2022-07-29T03:42:32;19.80;88.10
25741;DHT22;13592;50.838;4.412;2022-07-29T03:44:59;19.80;87.90
25741;DHT22;13592;50.838;4.412;2022-07-29T03:47:27;19.90;87.30
25741;DHT22;13592;50.838;4.412;2022-07-29T03:49:56;19.90;87.40
25741;DHT22;13592;50.838;4.412;2022-07-29T03:52:23;19.90;87.40
25741;DHT22;13592;50.838;4.412;2022-07-29T03:54:49;19.80;87.80
25741;DHT22;13592;50.838;4.412;2022-07-29T03:57:14;19.70;89.00
25741;DHT22;13592;50.838;4.412;2022-07-29T03:59:41;19.80;88.90
25741;DHT22;13592;50.838;4.412;2022-07-29T04:02:08;19.70;88.70
25741;DHT22;13592;50.838;4.412;2022-07-29T04:04:35;19.60;89.30
25741;DHT22;13592;50.838;4.412;2022-07-29T04:07:01;19.60;90.00
25741;DHT22;13592;50.838;4.412;2022-07-29T04:09:26;19.70;90.10
25741;DHT22;13592;50.838;4.412;2022-07-29T04:11:53;19.70;90.00
25741;DHT22;13592;50.838;4.412;2022-07-29T04:14:20;19.70;89.70
25741;DHT22;13592;50.838;4.412;2022-07-29T04:16:47;19.60;89.90
25741;DHT22;13592;50.838;4.412;2022-07-29T04:19:15;19.60;90.00
25741;DHT22;13592;50.838;4.412;2022-07-29T04:21:40;19.60;90.20
25741;DHT22;13592;50.838;4.412;2022-07-29T04:24:06;19.60;90.30
25741;DHT22;13592;50.838;4.412;2022-07-29T04:26:32;19.60;90.30
25741;DHT22;13592;50.838;4.412;2022-07-29T04:28:58;19.60;90.50
25741;DHT22;13592;50.838;4.412;2022-07-29T04:31:24;19.40;91.00
25741;DHT22;13592;50.838;4.412;2022-07-29T04:33:51;19.40;91.10
25741;DHT22;13592;50.838;4.412;2022-07-29T04:36:16;19.50;91.60
25741;DHT22;13592;50.838;4.412;2022-07-29T04:38:48;19.60;91.30
25741;DHT22;13592;50.838;4.412;2022-07-29T04:41:14;19.50;91.40
25741;DHT22;13592;50.838;4.412;2022-07-29T04:43:41;19.60;91.70
25741;DHT22;13592;50.838;4.412;2022-07-29T04:46:07;19.60;91.40
25741;DHT22;13592;50.838;4.412;2022-07-29T04:48:32;19.60;91.50
25741;DHT22;13592;50.838;4.412;2022-07-29T04:50:58;19.60;91.70
25741;DHT22;13592;50.838;4.412;2022-07-29T04:53:24;19.50;91.90
25741;DHT22;13592;50.838;4.412;2022-07-29T04:55:49;19.50;92.20
25741;DHT22;13592;50.838;4.412;2022-07-29T04:58:15;19.40;92.50
25741;DHT22;13592;50.838;4.412;2022-07-29T05:00:41;19.50;92.70
25741;DHT22;13592;50.838;4.412;2022-07-29T05:03:08;19.40;93.10
25741;DHT22;13592;50.838;4.412;2022-07-29T05:05:34;19.50;92.80
25741;DHT22;13592;50.838;4.412;2022-07-29T05:07:59;19.50;93.20
25741;DHT22;13592;50.838;4.412;2022-07-29T05:10:26;19.60;93.10
25741;DHT22;13592;50.838;4.412;2022-07-29T05:12:52;19.60;93.30
25741;DHT22;13592;50.838;4.412;2022-07-29T05:15:17;19.50;93.40
25741;DHT22;13592;50.838;4.412;2022-07-29T05:17:43;19.50;93.50
25741;DHT22;13592;50.838;4.412;2022-07-29T05:20:09;19.60;93.50
25741;DHT22;13592;50.838;4.412;2022-07-29T05:22:36;19.60;93.70
25741;DHT22;13592;50.838;4.412;2022-07-29T05:25:03;19.70;93.40
25741;DHT22;13592;50.838;4.412;2022-07-29T05:27:29;19.70;93.40
25741;DHT22;13592;50.838;4.412;2022-07-29T05:29:54;19.70;93.60
25741;DHT22;13592;50.838;4.412;2022-07-29T05:32:21;19.80;93.30
25741;DHT22;13592;50.838;4.412;2022-07-29T05:34:48;19.80;93.80
25741;DHT22;13592;50.838;4.412;2022-07-29T05:37:14;19.90;94.10
25741;DHT22;13592;50.838;4.412;2022-07-29T05:39:39;20.00;93.70
25741;DHT22;13592;50.838;4.412;2022-07-29T05:42:09;20.10;93.40
25741;DHT22;13592;50.838;4.412;2022-07-29T05:44:39;20.10;93.50
25741;DHT22;13592;50.838;4.412;2022-07-29T05:47:05;20.10;93.20
25741;DHT22;13592;50.838;4.412;2022-07-29T05:49:31;20.30;93.00
25741;DHT22;13592;50.838;4.412;2022-07-29T05:51:57;20.30;93.20
25741;DHT22;13592;50.838;4.412;2022-07-29T05:54:24;20.30;93.50
25741;DHT22;13592;50.838;4.412;2022-07-29T05:56:50;20.30;93.60
25741;DHT22;13592;50.838;4.412;2022-07-29T05:59:16;20.20;93.90
25741;DHT22;13592;50.838;4.412;2022-07-29T06:01:41;20.10;94.20
25741;DHT22;13592;50.838;4.412;2022-07-29T06:04:07;20.30;94.10
25741;DHT22;13592;50.838;4.412;2022-07-29T06:06:34;20.20;94.40
25741;DHT22;13592;50.838;4.412;2022-07-29T06:09:00;20.30;94.40
25741;DHT22;13592;50.838;4.412;2022-07-29T06:11:25;20.30;94.10
25741;DHT22;13592;50.838;4.412;2022-07-29T06:13:51;20.50;94.00
25741;DHT22;13592;50.838;4.412;2022-07-29T06:16:16;20.50;93.70
25741;DHT22;13592;50.838;4.412;2022-07-29T06:18:42;20.50;94.00
25741;DHT22;13592;50.838;4.412;2022-07-29T06:21:08;20.50;94.20
25741;DHT22;13592;50.838;4.412;2022-07-29T06:23:35;20.50;94.30
25741;DHT22;13592;50.838;4.412;2022-07-29T06:26:01;20.60;94.60
25741;DHT22;13592;50.838;4.412;2022-07-29T06:28:27;20.70;94.00
25741;DHT22;13592;50.838;4.412;2022-07-29T06:30:53;20.70;94.10
25741;DHT22;13592;50.838;4.412;2022-07-29T06:33:18;20.70;93.90
25741;DHT22;13592;50.838;4.412;2022-07-29T06:35:44;20.70;94.10
25741;DHT22;13592;50.838;4.412;2022-07-29T06:38:14;20.90;93.20
25741;DHT22;13592;50.838;4.412;2022-07-29T06:40:43;20.90;93.70
25741;DHT22;13592;50.838;4.412;2022-07-29T06:43:43;21.00;93.90
25741;DHT22;13592;50.838;4.412;2022-07-29T06:46:11;21.10;93.00
25741;DHT22;13592;50.838;4.412;2022-07-29T06:48:37;21.40;93.10
25741;DHT22;13592;50.838;4.412;2022-07-29T06:51:03;21.20;92.90
25741;DHT22;13592;50.838;4.412;2022-07-29T06:53:29;21.20;93.30
25741;DHT22;13592;50.838;4.412;2022-07-29T06:55:55;21.40;93.30
25741;DHT22;13592;50.838;4.412;2022-07-29T06:58:21;21.40;92.40
25741;DHT22;13592;50.838;4.412;2022-07-29T07:00:46;21.50;92.10
25741;DHT22;13592;50.838;4.412;2022-07-29T07:03:14;21.50;92.20
25741;DHT22;13592;50.838;4.412;2022-07-29T07:05:39;22.00;92.10
25741;DHT22;13592;50.838;4.412;2022-07-29T07:08:05;22.70;90.10
25741;DHT22;13592;50.838;4.412;2022-07-29T07:10:31;23.10;89.70
25741;DHT22;13592;50.838;4.412;2022-07-29T07:12:57;23.40;88.00
25741;DHT22;13592;50.838;4.412;2022-07-29T07:15:23;23.60;86.30
25741;DHT22;13592;50.838;4.412;2022-07-29T07:17:49;23.70;85.20
25741;DHT22;13592;50.838;4.412;2022-07-29T07:20:15;23.70;85.20
25741;DHT22;13592;50.838;4.412;2022-07-29T07:22:41;23.60;84.80
25741;DHT22;13592;50.838;4.412;2022-07-29T07:25:06;23.60;85.50
25741;DHT22;13592;50.838;4.412;2022-07-29T07:27:32;23.70;84.60
25741;DHT22;13592;50.838;4.412;2022-07-29T07:29:57;23.70;85.50
25741;DHT22;13592;50.838;4.412;2022-07-29T07:32:23;24.00;85.10
25741;DHT22;13592;50.838;4.412;2022-07-29T07:34:48;24.20;82.90
25741;DHT22;13592;50.838;4.412;2022-07-29T07:37:14;24.20;82.70
25741;DHT22;13592;50.838;4.412;2022-07-29T07:39:40;24.40;82.90
25741;DHT22;13592;50.838;4.412;2022-07-29T07:42:06;24.90;80.70
25741;DHT22;13592;50.838;4.412;2022-07-29T07:44:32;25.50;78.20
25741;DHT22;13592;50.838;4.412;2022-07-29T07:46:57;25.60;77.20
25741;DHT22;13592;50.838;4.412;2022-07-29T07:49:23;25.90;75.00
25741;DHT22;13592;50.838;4.412;2022-07-29T07:51:49;26.50;73.80
25741;DHT22;13592;50.838;4.412;2022-07-29T07:54:14;27.90;68.50
25741;DHT22;13592;50.838;4.412;2022-07-29T07:56:40;27.90;68.00
25741;DHT22;13592;50.838;4.412;2022-07-29T07:59:05;29.40;65.70
25741;DHT22;13592;50.838;4.412;2022-07-29T08:01:31;31.10;60.50
25741;DHT22;13592;50.838;4.412;2022-07-29T08:03:56;33.40;55.50
25741;DHT22;13592;50.838;4.412;2022-07-29T08:06:22;35.20;51.00
25741;DHT22;13592;50.838;4.412;2022-07-29T08:08:50;36.60;48.00
25741;DHT22;13592;50.838;4.412;2022-07-29T08:11:15;37.70;46.00
25741;DHT22;13592;50.838;4.412;2022-07-29T08:13:42;38.30;42.40
25741;DHT22;13592;50.838;4.412;2022-07-29T08:16:08;38.70;42.60
25741;DHT22;13592;50.838;4.412;2022-07-29T08:18:37;39.70;40.60
25741;DHT22;13592;50.838;4.412;2022-07-29T08:21:03;40.50;39.60
25741;DHT22;13592;50.838;4.412;2022-07-29T08:23:28;41.50;38.40
25741;DHT22;13592;50.838;4.412;2022-07-29T08:26:04;42.10;36.50
25741;DHT22;13592;50.838;4.412;2022-07-29T08:28:29;42.50;36.20
25741;DHT22;13592;50.838;4.412;2022-07-29T08:30:55;42.90;34.60
25741;DHT22;13592;50.838;4.412;2022-07-29T08:33:20;43.40;34.60
25741;DHT22;13592;50.838;4.412;2022-07-29T08:35:46;43.60;34.10
25741;DHT22;13592;50.838;4.412;2022-07-29T08:38:12;43.70;33.40
25741;DHT22;13592;50.838;4.412;2022-07-29T08:40:37;44.10;32.70
25741;DHT22;13592;50.838;4.412;2022-07-29T08:43:06;44.00;32.70
25741;DHT22;13592;50.838;4.412;2022-07-29T08:45:40;43.80;32.70
25741;DHT22;13592;50.838;4.412;2022-07-29T08:48:06;45.10;32.00
25741;DHT22;13592;50.838;4.412;2022-07-29T08:50:32;44.90;31.30
25741;DHT22;13592;50.838;4.412;2022-07-29T08:53:00;44.70;31.10
25741;DHT22;13592;50.838;4.412;2022-07-29T08:55:25;44.50;31.80
25741;DHT22;13592;50.838;4.412;2022-07-29T08:57:51;44.60;31.40
25741;DHT22;13592;50.838;4.412;2022-07-29T09:00:17;45.00;31.60
25741;DHT22;13592;50.838;4.412;2022-07-29T09:02:44;45.50;31.00
25741;DHT22;13592;50.838;4.412;2022-07-29T09:05:11;45.60;29.80
25741;DHT22;13592;50.838;4.412;2022-07-29T09:07:38;45.20;30.30
25741;DHT22;13592;50.838;4.412;2022-07-29T09:10:05;45.10;30.20
25741;DHT22;13592;50.838;4.412;2022-07-29T09:12:31;44.60;31.10
25741;DHT22;13592;50.838;4.412;2022-07-29T09:14:56;44.90;30.50
25741;DHT22;13592;50.838;4.412;2022-07-29T09:17:41;44.50;30.20
25741;DHT22;13592;50.838;4.412;2022-07-29T09:20:10;44.70;30.20
25741;DHT22;13592;50.838;4.412;2022-07-29T09:22:36;45.40;30.00
25741;DHT22;13592;50.838;4.412;2022-07-29T09:25:02;45.70;29.20
25741;DHT22;13592;50.838;4.412;2022-07-29T09:27:27;45.70;29.60
25741;DHT22;13592;50.838;4.412;2022-07-29T09:30:05;46.20;29.10
25741;DHT22;13592;50.838;4.412;2022-07-29T09:32:53;46.60;28.70
25741;DHT22;13592;50.838;4.412;2022-07-29T09:35:20;46.50;28.20
25741;DHT22;13592;50.838;4.412;2022-07-29T09:37:46;46.20;28.40
25741;DHT22;13592;50.838;4.412;2022-07-29T09:40:13;45.50;28.80
25741;DHT22;13592;50.838;4.412;2022-07-29T09:42:39;45.50;29.60
25741;DHT22;13592;50.838;4.412;2022-07-29T09:45:04;46.00;29.10
25741;DHT22;13592;50.838;4.412;2022-07-29T09:47:41;46.50;28.70
25741;DHT22;13592;50.838;4.412;2022-07-29T09:50:06;45.90;28.40
25741;DHT22;13592;50.838;4.412;2022-07-29T09:52:32;46.10;28.50
25741;DHT22;13592;50.838;4.412;2022-07-29T09:55:10;46.10;28.90
25741;DHT22;13592;50.838;4.412;2022-07-29T09:57:35;45.50;29.00
25741;DHT22;13592;50.838;4.412;2022-07-29T10:00:03;45.30;28.70
25741;DHT22;13592;50.838;4.412;2022-07-29T10:02:32;45.60;29.10
25741;DHT22;13592;50.838;4.412;2022-07-29T10:04:58;46.20;28.20
25741;DHT22;13592;50.838;4.412;2022-07-29T10:07:23;46.00;28.70
25741;DHT22;13592;50.838;4.412;2022-07-29T10:09:58;46.30;28.40
25741;DHT22;13592;50.838;4.412;2022-07-29T10:12:25;46.60;27.90
25741;DHT22;13592;50.838;4.412;2022-07-29T10:14:50;46.60;28.60
25741;DHT22;13592;50.838;4.412;2022-07-29T10:17:16;46.50;27.60
25741;DHT22;13592;50.838;4.412;2022-07-29T10:19:43;46.10;28.10
25741;DHT22;13592;50.838;4.412;2022-07-29T10:22:09;45.10;28.80
25741;DHT22;13592;50.838;4.412;2022-07-29T10:24:35;44.80;29.30
25741;DHT22;13592;50.838;4.412;2022-07-29T10:27:03;44.90;29.60
25741;DHT22;13592;50.838;4.412;2022-07-29T10:29:28;45.00;29.20
25741;DHT22;13592;50.838;4.412;2022-07-29T10:34:36;46.10;29.20
25741;DHT22;13592;50.838;4.412;2022-07-29T10:40:11;46.10;28.20
25741;DHT22;13592;50.838;4.412;2022-07-29T10:42:59;45.50;29.00
25741;DHT22;13592;50.838;4.412;2022-07-29T10:45:29;45.10;29.20
25741;DHT22;13592;50.838;4.412;2022-07-29T10:48:04;44.70;29.00
25741;DHT22;13592;50.838;4.412;2022-07-29T10:53:16;45.20;28.20
25741;DHT22;13592;50.838;4.412;2022-07-29T10:55:42;44.50;29.50
25741;DHT22;13592;50.838;4.412;2022-07-29T11:00:41;44.80;28.70
25741;DHT22;13592;50.838;4.412;2022-07-29T11:03:08;43.40;29.10
25741;DHT22;13592;50.838;4.412;2022-07-29T11:05:52;43.50;29.10
25741;DHT22;13592;50.838;4.412;2022-07-29T11:08:19;42.40;29.80
25741;DHT22;13592;50.838;4.412;2022-07-29T11:10:48;41.80;30.90
25741;DHT22;13592;50.838;4.412;2022-07-29T11:13:59;40.40;32.80
25741;DHT22;13592;50.838;4.412;2022-07-29T11:16:00;39.30;34.10
25741;DHT22;13592;50.838;4.412;2022-07-29T11:18:25;38.70;35.40
25741;DHT22;13592;50.838;4.412;2022-07-29T11:20:51;38.40;34.80
25741;DHT22;13592;50.838;4.412;2022-07-29T11:23:26;38.20;35.90
25741;DHT22;13592;50.838;4.412;2022-07-29T11:26:13;37.80;35.80
25741;DHT22;13592;50.838;4.412;2022-07-29T11:31:31;37.50;35.20
25741;DHT22;13592;50.838;4.412;2022-07-29T11:39:28;35.80;37.50
25741;DHT22;13592;50.838;4.412;2022-07-29T11:42:03;35.30;40.40
25741;DHT22;13592;50.838;4.412;2022-07-29T11:47:24;33.80;42.00
25741;DHT22;13592;50.838;4.412;2022-07-29T11:49:50;33.50;41.60
25741;DHT22;13592;50.838;4.412;2022-07-29T11:52:20;33.20;42.90
25741;DHT22;13592;50.838;4.412;2022-07-29T11:54:51;33.10;41.80
25741;DHT22;13592;50.838;4.412;2022-07-29T11:57:17;32.80;41.50
25741;DHT22;13592;50.838;4.412;2022-07-29T11:59:44;32.40;42.30
25741;DHT22;13592;50.838;4.412;2022-07-29T12:02:09;32.30;43.60
25741;DHT22;13592;50.838;4.412;2022-07-29T12:04:50;31.80;42.50
25741;DHT22;13592;50.838;4.412;2022-07-29T12:07:16;31.50;44.20
25741;DHT22;13592;50.838;4.412;2022-07-29T12:09:51;31.50;45.40
25741;DHT22;13592;50.838;4.412;2022-07-29T12:12:17;31.50;44.10
25741;DHT22;13592;50.838;4.412;2022-07-29T12:14:43;31.30;44.10
25741;DHT22;13592;50.838;4.412;2022-07-29T12:17:28;31.10;45.50
25741;DHT22;13592;50.838;4.412;2022-07-29T12:19:59;30.90;45.60
25741;DHT22;13592;50.838;4.412;2022-07-29T12:22:35;30.70;47.40
25741;DHT22;13592;50.838;4.412;2022-07-29T12:25:09;30.40;48.10
25741;DHT22;13592;50.838;4.412;2022-07-29T12:27:36;30.20;48.80
25741;DHT22;13592;50.838;4.412;2022-07-29T12:30:03;30.00;49.90
25741;DHT22;13592;50.838;4.412;2022-07-29T12:32:34;29.90;48.60
25741;DHT22;13592;50.838;4.412;2022-07-29T12:35:02;29.80;48.00
25741;DHT22;13592;50.838;4.412;2022-07-29T12:37:27;29.50;47.00
25741;DHT22;13592;50.838;4.412;2022-07-29T12:39:55;29.60;46.50
25741;DHT22;13592;50.838;4.412;2022-07-29T12:42:20;29.40;47.90
25741;DHT22;13592;50.838;4.412;2022-07-29T12:44:47;29.30;47.60
25741;DHT22;13592;50.838;4.412;2022-07-29T12:47:12;29.30;46.80
25741;DHT22;13592;50.838;4.412;2022-07-29T12:49:38;29.20;48.10
25741;DHT22;13592;50.838;4.412;2022-07-29T12:54:49;29.30;49.00
25741;DHT22;13592;50.838;4.412;2022-07-29T12:57:14;29.60;49.80
25741;DHT22;13592;50.838;4.412;2022-07-29T12:59:40;29.60;48.40
25741;DHT22;13592;50.838;4.412;2022-07-29T13:02:06;29.60;48.50
25741;DHT22;13592;50.838;4.412;2022-07-29T13:04:32;29.60;47.40
25741;DHT22;13592;50.838;4.412;2022-07-29T13:06:59;29.40;49.10
25741;DHT22;13592;50.838;4.412;2022-07-29T13:09:35;29.30;47.70
25741;DHT22;13592;50.838;4.412;2022-07-29T13:12:00;29.30;47.40
25741;DHT22;13592;50.838;4.412;2022-07-29T13:14:40;29.50;47.30
25741;DHT22;13592;50.838;4.412;2022-07-29T13:17:16;29.40;47.50
25741;DHT22;13592;50.838;4.412;2022-07-29T13:19:46;29.30;48.20
25741;DHT22;13592;50.838;4.412;2022-07-29T13:22:14;29.00;48.00
25741;DHT22;13592;50.838;4.412;2022-07-29T13:27:21;28.80;49.10
25741;DHT22;13592;50.838;4.412;2022-07-29T13:29:47;28.80;48.80
25741;DHT22;13592;50.838;4.412;2022-07-29T13:32:16;28.60;50.20
25741;DHT22;13592;50.838;4.412;2022-07-29T13:34:42;28.60;50.00
25741;DHT22;13592;50.838;4.412;2022-07-29T13:37:07;28.60;49.40
25741;DHT22;13592;50.838;4.412;2022-07-29T13:39:33;28.60;48.90
25741;DHT22;13592;50.838;4.412;2022-07-29T13:41:58;28.60;49.90
25741;DHT22;13592;50.838;4.412;2022-07-29T13:44:24;28.60;50.40
25741;DHT22;13592;50.838;4.412;2022-07-29T13:46:49;28.70;49.10
25741;DHT22;13592;50.838;4.412;2022-07-29T13:49:15;28.60;50.00
25741;DHT22;13592;50.838;4.412;2022-07-29T13:51:40;28.60;51.60
25741;DHT22;13592;50.838;4.412;2022-07-29T13:54:06;28.60;49.60
25741;DHT22;13592;50.838;4.412;2022-07-29T13:56:31;28.70;49.60
25741;DHT22;13592;50.838;4.412;2022-07-29T13:58:57;28.90;47.70
25741;DHT22;13592;50.838;4.412;2022-07-29T14:01:23;28.80;49.60
25741;DHT22;13592;50.838;4.412;2022-07-29T14:03:49;28.80;48.90
25741;DHT22;13592;50.838;4.412;2022-07-29T14:06:14;28.80;49.50
25741;DHT22;13592;50.838;4.412;2022-07-29T14:08:41;29.00;48.90
25741;DHT22;13592;50.838;4.412;2022-07-29T14:11:06;29.10;48.60
25741;DHT22;13592;50.838;4.412;2022-07-29T14:13:32;29.10;49.20
25741;DHT22;13592;50.838;4.412;2022-07-29T14:15:57;29.00;48.50
25741;DHT22;13592;50.838;4.412;2022-07-29T14:18:23;28.90;48.70
25741;DHT22;13592;50.838;4.412;2022-07-29T14:20:49;28.80;50.10
25741;DHT22;13592;50.838;4.412;2022-07-29T14:23:16;28.90;48.70
25741;DHT22;13592;50.838;4.412;2022-07-29T14:25:42;29.20;48.20
25741;DHT22;13592;50.838;4.412;2022-07-29T14:28:07;29.20;46.60
25741;DHT22;13592;50.838;4.412;2022-07-29T14:30:33;29.00;45.30
25741;DHT22;13592;50.838;4.412;2022-07-29T14:32:58;28.70;46.60
25741;DHT22;13592;50.838;4.412;2022-07-29T14:35:24;28.40;48.20
25741;DHT22;13592;50.838;4.412;2022-07-29T14:37:49;28.20;48.90
25741;DHT22;13592;50.838;4.412;2022-07-29T14:40:15;28.00;50.00
25741;DHT22;13592;50.838;4.412;2022-07-29T14:42:40;27.90;49.80
25741;DHT22;13592;50.838;4.412;2022-07-29T14:45:07;27.90;51.10
25741;DHT22;13592;50.838;4.412;2022-07-29T14:47:33;28.00;49.80
25741;DHT22;13592;50.838;4.412;2022-07-29T14:49:58;28.10;49.90
25741;DHT22;13592;50.838;4.412;2022-07-29T14:52:24;28.20;50.10
25741;DHT22;13592;50.838;4.412;2022-07-29T14:54:49;28.40;47.80
25741;DHT22;13592;50.838;4.412;2022-07-29T14:57:15;28.00;47.70
25741;DHT22;13592;50.838;4.412;2022-07-29T14:59:41;28.00;49.10
25741;DHT22;13592;50.838;4.412;2022-07-29T15:02:07;27.90;47.80
25741;DHT22;13592;50.838;4.412;2022-07-29T15:04:33;27.80;47.70
25741;DHT22;13592;50.838;4.412;2022-07-29T15:06:58;27.70;50.20
25741;DHT22;13592;50.838;4.412;2022-07-29T15:09:24;27.70;50.40
25741;DHT22;13592;50.838;4.412;2022-07-29T15:11:49;27.70;50.30
25741;DHT22;13592;50.838;4.412;2022-07-29T15:14:15;27.70;51.30
25741;DHT22;13592;50.838;4.412;2022-07-29T15:16:41;27.70;52.40
25741;DHT22;13592;50.838;4.412;2022-07-29T15:19:08;27.70;52.50
25741;DHT22;13592;50.838;4.412;2022-07-29T15:21:34;27.60;51.80
25741;DHT22;13592;50.838;4.412;2022-07-29T15:24:00;27.60;52.00
25741;DHT22;13592;50.838;4.412;2022-07-29T15:26:26;27.70;51.70
25741;DHT22;13592;50.838;4.412;2022-07-29T15:28:51;27.80;52.30
25741;DHT22;13592;50.838;4.412;2022-07-29T15:31:17;27.70;51.50
25741;DHT22;13592;50.838;4.412;2022-07-29T15:33:44;27.70;52.50
25741;DHT22;13592;50.838;4.412;2022-07-29T15:36:09;27.70;52.30
25741;DHT22;13592;50.838;4.412;2022-07-29T15:38:37;27.70;52.40
25741;DHT22;13592;50.838;4.412;2022-07-29T15:41:03;27.70;53.40
25741;DHT22;13592;50.838;4.412;2022-07-29T15:43:28;27.70;53.20
25741;DHT22;13592;50.838;4.412;2022-07-29T15:45:54;27.80;54.50
25741;DHT22;13592;50.838;4.412;2022-07-29T15:48:38;27.80;52.50
25741;DHT22;13592;50.838;4.412;2022-07-29T15:51:04;27.70;51.30
25741;DHT22;13592;50.838;4.412;2022-07-29T15:53:29;27.70;51.00
25741;DHT22;13592;50.838;4.412;2022-07-29T15:55:55;27.70;51.90
25741;DHT22;13592;50.838;4.412;2022-07-29T15:58:20;27.60;52.10
25741;DHT22;13592;50.838;4.412;2022-07-29T16:00:47;27.60;51.40
25741;DHT22;13592;50.838;4.412;2022-07-29T16:03:12;27.70;51.00
25741;DHT22;13592;50.838;4.412;2022-07-29T16:05:38;27.60;49.90
25741;DHT22;13592;50.838;4.412;2022-07-29T16:08:03;27.70;50.20